KCBF/CBF METAR and TAF weather

Enter ICAO airport designator
Station Type Date Time Source
KCBF METAR 2022/06/28 09:55 UTC NOAA

KCBF 280955Z AUTO 20008KT 10SM CLR 17/09 A3020 RMK AO2


Station Type Date Time Source
KCBF Decoded METAR 2022/06/28 09:55 UTC NOAA

Council Bluffs, IA, United States (KCBF) 41-16N 095-46W
Jun 28, 2022 - 05:55 AM EDT / 2022.06.28 0955 UTC
Wind: from the SSW (200 degrees) at 9 MPH (8 KT):0
Visibility: 10 mile(s):0
Sky conditions: clear
Temperature: 62 F (17 C)
Dew Point: 48 F (9 C)
Relative Humidity: 59%
Pressure (altimeter): 30.2 in. Hg (1022 hPa)
ob: KCBF 280955Z AUTO 20008KT 10SM CLR 17/09 A3020 RMK AO2
cycle: 10

Station Type Date Time Source
KCBF TAF UTC NOAA

Error!

Example: see airport list